Time;durP1;ratioP1;P1;durP2;ratioP2;P2;SDS_P1;SDS_P2;PMS_P1;PMS_P2;Temp;Humidity;BMP_temperature;BMP_pressure;BME280_temperature;BME280_humidity;BME280_pressure;Samples;Min_cycle;Max_cycle;Signal;HPM_P1;HPM_P2
2022/07/15 00:01:33;;;;;;;2.85;1.15;;;;;;;25.21;44.32;99950.41;5051814;28;20029;-63
2022/07/15 00:03:59;;;;;;;5.47;1.15;;;;;;;25.11;44.56;99936.44;5051636;28;20184;-63
2022/07/15 00:06:25;;;;;;;3.20;1.30;;;;;;;25.16;44.68;99939.28;5051904;28;20109;-63
2022/07/15 00:08:50;;;;;;;3.72;1.38;;;;;;;25.14;44.67;99936.78;5051722;28;20033;-64
2022/07/15 00:11:16;;;;;;;2.13;1.20;;;;;;;25.13;44.80;99934.25;5051876;28;20036;-63
2022/07/15 00:13:42;;;;;;;3.22;1.30;;;;;;;25.04;44.73;99919.22;5050136;28;20044;-63
2022/07/15 00:16:07;;;;;;;1.85;1.17;;;;;;;25.10;44.87;99934.72;5051640;28;20036;-63
2022/07/15 00:18:33;;;;;;;2.65;1.05;;;;;;;25.08;45.04;99934.16;5051321;28;20043;-63
2022/07/15 00:20:58;;;;;;;3.15;1.05;;;;;;;25.02;45.18;99932.34;5051384;28;20029;-63
2022/07/15 00:23:24;;;;;;;2.92;1.10;;;;;;;24.94;45.11;99913.47;5051369;28;20029;-63
2022/07/15 00:25:50;;;;;;;1.48;1.35;;;;;;;25.01;45.44;99925.19;5051098;28;20027;-64
2022/07/15 00:28:16;;;;;;;4.63;1.40;;;;;;;24.94;45.34;99921.72;5049931;28;20044;-63
2022/07/15 00:30:42;;;;;;;2.78;1.88;;;;;;;24.96;45.32;99925.06;5050958;28;20029;-63
2022/07/15 00:33:09;;;;;;;8.43;2.05;;;;;;;24.93;45.44;99934.63;5050993;28;20044;-62
2022/07/15 00:35:36;;;;;;;6.28;2.10;;;;;;;24.87;45.65;99924.59;5049721;28;20130;-63
2022/07/15 00:38:03;;;;;;;4.45;1.92;;;;;;;24.86;45.80;99922.06;5050908;28;20029;-63
2022/07/15 00:40:29;;;;;;;5.75;2.45;;;;;;;24.81;45.76;99920.03;5050840;28;20436;-63
2022/07/15 00:42:55;;;;;;;3.53;2.78;;;;;;;24.79;45.78;99918.59;5050989;28;20025;-63
2022/07/15 00:45:22;;;;;;;5.35;2.95;;;;;;;24.68;46.02;99902.94;5050819;28;20120;-63
2022/07/15 00:47:52;;;;;;;6.65;2.90;;;;;;;24.72;46.23;99918.69;5049383;28;20021;-63
2022/07/15 00:50:19;;;;;;;3.30;2.72;;;;;;;24.61;46.33;99905.78;5050865;28;20043;-63
2022/07/15 00:52:49;;;;;;;5.53;2.95;;;;;;;24.64;46.39;99919.06;5050705;28;20033;-63
2022/07/15 00:55:16;;;;;;;6.15;2.90;;;;;;;24.55;46.51;99912.19;5050661;28;20111;-63
2022/07/15 00:57:44;;;;;;;5.13;2.78;;;;;;;24.57;46.85;99921.03;5050631;28;20029;-63
2022/07/15 01:00:11;;;;;;;4.50;2.35;;;;;;;24.51;47.08;99924.72;5048954;28;20029;-63
2022/07/15 01:02:38;;;;;;;3.78;2.55;;;;;;;24.43;47.29;99920.38;5050731;28;20033;-63
2022/07/15 01:05:05;;;;;;;3.00;2.22;;;;;;;24.35;47.43;99926.19;5050520;28;20072;-63
2022/07/15 01:07:35;;;;;;;3.67;2.15;;;;;;;24.29;47.45;99935.38;5050316;28;20071;-63
2022/07/15 01:10:00;;;;;;;2.33;1.70;;;;;;;24.24;47.29;99943.44;5050332;28;20020;-63
2022/07/15 01:12:27;;;;;;;2.15;1.75;;;;;;;24.19;47.42;99947.94;5050274;28;20040;-63
2022/07/15 01:14:53;;;;;;;4.82;1.63;;;;;;;24.07;47.54;99953.38;5050367;28;20032;-63
2022/07/15 01:17:18;;;;;;;5.35;1.67;;;;;;;24.08;47.27;99979.69;5050576;28;20048;-62
2022/07/15 01:19:44;;;;;;;1.45;1.20;;;;;;;24.00;47.14;99969.06;5050054;28;20043;-63
2022/07/15 01:22:09;;;;;;;2.40;1.20;;;;;;;24.06;47.35;99984.56;5050379;28;20025;-63
2022/07/15 01:24:35;;;;;;;9.95;1.50;;;;;;;24.03;47.41;99976.81;5050142;28;20091;-63
2022/07/15 01:27:01;;;;;;;3.22;1.65;;;;;;;24.02;47.61;99968.84;5050299;28;20044;-63
2022/07/15 01:29:27;;;;;;;2.00;1.20;;;;;;;23.96;47.55;99923.19;5049846;28;20376;-62
2022/07/15 01:31:53;;;;;;;5.28;1.60;;;;;;;23.96;47.66;99898.50;5050187;28;20047;-63
2022/07/15 01:34:19;;;;;;;5.50;1.50;;;;;;;23.94;47.68;99906.13;5050309;28;20057;-63
2022/07/15 01:36:44;;;;;;;5.15;1.50;;;;;;;23.93;47.66;99921.69;5048489;28;20036;-63
2022/07/15 01:39:10;;;;;;;6.82;1.25;;;;;;;23.90;47.65;99927.63;5050165;28;20067;-62
2022/07/15 01:41:35;;;;;;;3.17;1.30;;;;;;;23.83;48.02;99907.69;5049932;28;20056;-63
2022/07/15 01:44:01;;;;;;;3.33;1.30;;;;;;;23.90;48.01;99899.41;5049903;28;20041;-62
2022/07/15 01:46:26;;;;;;;3.13;1.60;;;;;;;23.93;48.15;99921.69;5048445;28;20039;-62
2022/07/15 01:51:36;;;;;;;1.65;1.17;;;;;;;23.88;48.07;99928.91;5049764;28;20518;-63
2022/07/15 01:54:01;;;;;;;2.42;1.30;;;;;;;23.88;47.73;99926.19;5049619;28;20037;-63
2022/07/15 01:56:27;;;;;;;2.67;1.25;;;;;;;23.90;47.77;99954.19;5048618;28;20033;-62
2022/07/15 01:58:52;;;;;;;3.90;1.30;;;;;;;23.66;47.79;99942.25;5048902;28;20027;-63
2022/07/15 02:01:18;;;;;;;3.38;1.50;;;;;;;23.85;48.08;99954.03;5048758;28;20039;-63
2022/07/15 02:03:44;;;;;;;4.03;1.60;;;;;;;23.71;47.89;99952.53;5048738;28;20048;-63
2022/07/15 02:06:10;;;;;;;2.00;1.58;;;;;;;23.58;48.29;99938.97;5047350;28;20031;-63
2022/07/15 02:08:35;;;;;;;2.33;1.35;;;;;;;23.55;48.47;99951.22;5048521;28;20411;-63
2022/07/15 02:11:00;;;;;;;3.13;1.30;;;;;;;23.53;48.65;99941.53;5048215;28;20029;-62
2022/07/15 02:13:26;;;;;;;2.55;1.20;;;;;;;23.42;49.23;99936.84;5048444;28;20044;-64
2022/07/15 02:15:51;;;;;;;2.72;1.45;;;;;;;23.45;49.12;99945.44;5048935;28;20077;-63
2022/07/15 02:18:17;;;;;;;4.20;1.38;;;;;;;23.31;49.14;99918.44;5048538;28;20029;-63
2022/07/15 02:20:42;;;;;;;5.60;1.45;;;;;;;23.34;49.41;99927.00;5048221;28;20033;-63
2022/07/15 02:23:09;;;;;;;3.20;1.30;;;;;;;23.26;49.47;99930.06;5048455;28;20020;-63
2022/07/15 02:25:35;;;;;;;3.70;1.40;;;;;;;23.21;49.41;99912.59;5048283;28;20472;-62
2022/07/15 02:28:04;;;;;;;2.67;1.40;;;;;;;23.24;49.44;99934.91;5047043;28;20036;-62
2022/07/15 02:30:35;;;;;;;2.65;1.38;;;;;;;23.26;49.62;99965.63;5048291;28;20037;-63
2022/07/15 02:33:01;;;;;;;1.95;1.40;;;;;;;23.05;49.50;99927.69;5047036;28;20128;-63
2022/07/15 02:35:28;;;;;;;3.03;1.40;;;;;;;23.21;49.66;99965.41;5048379;28;20087;-62
2022/07/15 02:37:54;;;;;;;2.58;1.33;;;;;;;23.16;49.92;99965.28;5048518;28;20438;-62
2022/07/15 02:40:19;;;;;;;4.30;1.65;;;;;;;23.09;49.87;99950.81;5048153;28;20024;-62
2022/07/15 02:42:56;;;;;;;2.50;1.45;;;;;;;22.98;50.06;99953.41;5048268;28;20638;-63
2022/07/15 02:45:24;;;;;;;1.85;1.23;;;;;;;23.01;50.10;99952.97;5048546;28;20032;-63
2022/07/15 02:47:50;;;;;;;2.95;1.60;;;;;;;22.93;50.49;99965.06;5048065;28;20070;-62
2022/07/15 02:50:17;;;;;;;1.50;1.40;;;;;;;22.90;50.73;99956.44;5046917;28;20090;-63
2022/07/15 02:52:43;;;;;;;2.38;1.48;;;;;;;22.86;50.64;99952.50;5048488;28;20388;-63
2022/07/15 02:55:11;;;;;;;3.15;1.40;;;;;;;22.80;50.56;99951.47;5048552;28;20422;-62
2022/07/15 02:57:38;;;;;;;3.40;1.30;;;;;;;22.74;51.16;99957.84;5048923;28;20494;-63
2022/07/15 03:00:06;;;;;;;2.20;1.58;;;;;;;22.80;50.68;99976.09;5048995;28;20033;-62
2022/07/15 03:02:31;;;;;;;3.55;1.42;;;;;;;22.77;51.03;99982.00;5031716;28;20448;-62
2022/07/15 03:04:57;;;;;;;1.90;1.70;;;;;;;22.71;51.17;99993.81;5018668;28;20152;-62
2022/07/15 03:07:23;;;;;;;3.97;1.50;;;;;;;22.67;51.19;99978.94;5017528;28;20033;-62
2022/07/15 03:09:48;;;;;;;8.57;1.90;;;;;;;22.61;51.37;99985.28;5019595;28;20086;-62
2022/07/15 03:12:14;;;;;;;3.90;1.45;;;;;;;22.64;51.64;99998.50;5019060;28;20515;-63
2022/07/15 03:14:40;;;;;;;5.80;1.90;;;;;;;22.57;51.76;99992.22;5016291;28;20042;-62
2022/07/15 03:17:06;;;;;;;4.05;1.30;;;;;;;22.55;51.92;99998.97;5019984;28;20158;-62
2022/07/15 03:19:31;;;;;;;2.50;1.40;;;;;;;22.54;52.28;100014.56;5017521;28;20022;-63
2022/07/15 03:21:57;;;;;;;2.85;1.60;;;;;;;22.51;52.34;100023.19;5017891;28;20029;-63
2022/07/15 03:24:22;;;;;;;3.72;1.80;;;;;;;22.44;52.44;100030.53;5021094;28;20053;-62
2022/07/15 03:26:47;;;;;;;3.72;1.80;;;;;;;22.29;52.40;100013.59;5021710;28;20024;-63
2022/07/15 03:29:15;;;;;;;8.13;1.55;;;;;;;22.46;52.62;100061.22;5021578;28;20021;-63
2022/07/15 03:31:43;;;;;;;4.72;1.85;;;;;;;22.41;52.75;100060.19;5023235;28;20025;-63
2022/07/15 03:34:10;;;;;;;4.53;1.45;;;;;;;22.31;52.75;100045.09;5022387;28;20025;-62
2022/07/15 03:36:38;;;;;;;6.97;1.60;;;;;;;22.37;53.13;100064.44;5020117;28;20030;-62
2022/07/15 03:39:05;;;;;;;4.63;1.80;;;;;;;22.34;53.27;100065.69;5020425;28;20017;-62
2022/07/15 03:41:30;;;;;;;5.03;1.77;;;;;;;22.36;53.48;100069.03;5022710;28;20032;-62
2022/07/15 03:43:56;;;;;;;7.82;1.73;;;;;;;22.31;53.57;100061.50;5017426;28;20021;-62
2022/07/15 03:46:21;;;;;;;3.17;1.80;;;;;;;22.29;53.89;100052.66;5018946;28;20078;-62
2022/07/15 03:48:47;;;;;;;3.47;1.65;;;;;;;22.30;54.06;100065.28;5020068;28;20025;-62
2022/07/15 03:51:13;;;;;;;6.03;1.80;;;;;;;22.26;54.19;100057.75;5020288;28;20101;-62
2022/07/15 03:53:38;;;;;;;5.53;1.88;;;;;;;22.20;54.36;100034.00;5012224;28;20481;-62
2022/07/15 03:56:04;;;;;;;3.60;1.23;;;;;;;22.33;54.38;100044.88;5012116;28;20034;-63
2022/07/15 03:58:29;;;;;;;5.00;1.90;;;;;;;22.38;54.38;100045.09;5012219;28;20033;-62
2022/07/15 04:00:55;;;;;;;7.50;1.92;;;;;;;22.42;54.15;100036.19;5012269;28;20029;-62
2022/07/15 04:03:20;;;;;;;4.30;2.00;;;;;;;22.56;54.12;100037.03;5011878;28;20056;-62
2022/07/15 04:05:46;;;;;;;6.60;2.20;;;;;;;22.63;54.20;100045.19;5012019;28;20030;-62
2022/07/15 04:08:11;;;;;;;4.30;1.80;;;;;;;22.60;53.81;100027.31;5012118;28;20034;-62
2022/07/15 04:10:37;;;;;;;4.78;1.73;;;;;;;22.88;53.57;100052.41;5011919;28;20092;-63
2022/07/15 04:13:03;;;;;;;5.43;2.00;;;;;;;22.93;53.74;100052.59;5011998;28;20060;-62
2022/07/15 04:15:28;;;;;;;7.10;2.22;;;;;;;23.06;53.71;100051.66;5012036;28;20061;-63
2022/07/15 04:17:54;;;;;;;7.03;2.00;;;;;;;23.21;53.67;100049.44;5011952;28;20120;-63
2022/07/15 04:20:20;;;;;;;7.18;2.25;;;;;;;23.33;53.23;100044.94;5011733;28;20060;-62
2022/07/15 04:22:49;;;;;;;6.25;2.10;;;;;;;23.42;53.12;100040.84;5011713;28;20120;-63
2022/07/15 04:25:17;;;;;;;3.95;2.05;;;;;;;23.41;53.05;100009.09;5010687;28;20042;-62
2022/07/15 04:27:43;;;;;;;8.48;1.88;;;;;;;23.69;52.94;100037.66;5011664;28;20057;-62
2022/07/15 04:30:09;;;;;;;4.93;2.33;;;;;;;23.80;52.84;100038.81;5010484;28;20077;-63
2022/07/15 04:32:35;;;;;;;4.63;2.10;;;;;;;23.95;52.89;100050.25;5011421;28;20029;-62
2022/07/15 04:35:01;;;;;;;5.40;2.42;;;;;;;24.02;53.15;100045.56;5011549;28;20045;-62
2022/07/15 04:37:27;;;;;;;8.63;2.30;;;;;;;24.12;53.33;100043.13;5011936;28;20397;-63
2022/07/15 04:39:54;;;;;;;17.95;2.83;;;;;;;24.22;53.19;100052.47;5011447;28;20105;-63
2022/07/15 04:42:20;;;;;;;4.60;1.92;;;;;;;24.36;52.89;100051.25;5010082;28;20044;-62
2022/07/15 04:44:47;;;;;;;12.82;2.33;;;;;;;24.49;52.97;100069.44;5011279;28;20485;-62
2022/07/15 04:47:13;;;;;;;10.70;2.63;;;;;;;24.58;52.95;100059.81;5011186;28;20037;-62
2022/07/15 04:52:24;;;;;;;5.40;2.33;;;;;;;24.90;52.25;100063.22;5011723;28;20476;-62
2022/07/15 04:54:50;;;;;;;5.95;2.10;;;;;;;25.06;51.83;100054.31;5011248;28;20045;-63
2022/07/15 04:57:15;;;;;;;7.00;2.13;;;;;;;25.23;51.20;100056.16;5011061;28;20034;-63
2022/07/15 04:59:41;;;;;;;4.93;2.10;;;;;;;25.40;50.53;100068.16;5011093;28;20056;-63
2022/07/15 05:02:06;;;;;;;4.40;1.88;;;;;;;25.54;50.00;100071.50;5021722;28;20041;-62
2022/07/15 05:04:32;;;;;;;2.90;1.40;;;;;;;25.72;49.60;100071.38;5019771;28;20045;-62
2022/07/15 05:06:57;;;;;;;4.10;1.85;;;;;;;25.84;48.82;100083.22;5020768;28;20021;-62
2022/07/15 05:09:23;;;;;;;7.28;1.63;;;;;;;25.90;48.25;100079.53;5021087;28;20034;-63
2022/07/15 05:11:48;;;;;;;3.22;1.50;;;;;;;25.88;48.16;100082.50;5019278;28;20020;-62
2022/07/15 05:14:13;;;;;;;4.03;1.45;;;;;;;25.90;48.25;100083.13;5020547;28;20017;-62
2022/07/15 05:16:39;;;;;;;5.47;1.73;;;;;;;25.85;48.24;100082.16;5027996;28;20366;-60
2022/07/15 05:19:04;;;;;;;7.97;1.60;;;;;;;25.86;48.26;100089.34;5030275;28;20021;-61
2022/07/15 05:21:30;;;;;;;5.47;1.73;;;;;;;25.79;48.13;100096.88;5030598;28;20488;-60
2022/07/15 05:23:56;;;;;;;4.57;1.83;;;;;;;25.64;48.23;100091.84;5030409;28;20067;-61
2022/07/15 05:26:21;;;;;;;3.15;1.75;;;;;;;25.80;48.37;100117.78;5045408;28;20039;-62
2022/07/15 05:28:47;;;;;;;4.72;1.48;;;;;;;25.74;48.53;100113.22;5038016;28;20025;-60
2022/07/15 05:31:12;;;;;;;3.40;1.63;;;;;;;25.69;48.76;100113.94;5030198;28;20026;-61
2022/07/15 05:33:38;;;;;;;4.80;1.60;;;;;;;25.68;48.63;100122.41;5030050;28;20423;-60
2022/07/15 05:36:04;;;;;;;8.45;1.85;;;;;;;25.61;48.54;100135.41;5030425;28;20033;-60
2022/07/15 05:38:30;;;;;;;3.50;1.52;;;;;;;25.53;48.51;100125.59;5029877;28;20079;-60
2022/07/15 05:40:56;;;;;;;2.47;1.58;;;;;;;25.51;48.57;100125.03;5029098;28;20039;-60
2022/07/15 05:43:21;;;;;;;6.95;1.98;;;;;;;25.57;48.37;100140.53;5030116;28;20449;-60
2022/07/15 05:45:47;;;;;;;2.88;1.38;;;;;;;25.51;48.48;100144.25;5029699;28;20083;-60
2022/07/15 05:48:12;;;;;;;4.13;1.40;;;;;;;25.50;48.33;100147.22;5029897;28;20071;-60
2022/07/15 05:50:38;;;;;;;4.88;1.67;;;;;;;25.50;48.31;100152.72;5030066;28;20022;-60
2022/07/15 05:53:03;;;;;;;6.03;1.73;;;;;;;25.50;48.07;100163.72;5029764;28;20109;-60
2022/07/15 05:55:29;;;;;;;4.10;1.40;;;;;;;25.46;48.13;100166.06;5028619;28;20071;-60
2022/07/15 05:57:55;;;;;;;6.00;1.52;;;;;;;25.42;48.34;100170.38;5029795;28;20432;-60
2022/07/15 06:00:21;;;;;;;7.45;1.65;;;;;;;25.38;48.37;100160.94;5023583;28;20026;-60
2022/07/15 06:02:47;;;;;;;16.08;2.65;;;;;;;25.38;48.38;100160.09;5012646;28;20716;-60
2022/07/15 06:05:12;;;;;;;7.28;1.58;;;;;;;25.32;48.85;100147.28;5018717;28;20078;-61
2022/07/15 06:07:38;;;;;;;10.85;2.03;;;;;;;25.36;49.10;100152.09;5019296;28;20458;-60
2022/07/15 06:10:04;;;;;;;11.90;2.53;;;;;;;25.33;49.11;100143.47;5020179;28;20050;-61
2022/07/15 06:12:30;;;;;;;10.63;2.22;;;;;;;25.32;48.84;100137.16;5018895;28;20037;-60
2022/07/15 06:14:55;;;;;;;9.15;2.30;;;;;;;25.27;49.08;100136.97;5018993;28;20109;-60
2022/07/15 06:17:21;;;;;;;5.55;2.03;;;;;;;25.29;49.38;100161.44;5017467;28;20037;-60
2022/07/15 06:19:47;;;;;;;8.55;1.67;;;;;;;25.21;48.95;100161.78;5020385;28;20037;-61
2022/07/15 06:22:13;;;;;;;6.90;1.92;;;;;;;25.28;48.81;100184.50;5020776;28;20026;-61
2022/07/15 06:24:38;;;;;;;17.38;2.40;;;;;;;25.26;48.87;100176.50;5029167;28;20025;-60
2022/07/15 06:27:04;;;;;;;10.32;2.03;;;;;;;25.23;49.22;100192.56;5029539;28;20021;-61
2022/07/15 06:29:29;;;;;;;11.40;1.88;;;;;;;25.23;49.28;100195.31;5029530;28;20104;-60
2022/07/15 06:31:55;;;;;;;12.65;2.20;;;;;;;25.20;49.44;100199.38;5025293;28;20523;-63
2022/07/15 06:34:20;;;;;;;21.52;3.03;;;;;;;25.17;49.84;100201.75;5028756;28;20045;-63
2022/07/15 06:36:46;;;;;;;13.48;3.25;;;;;;;25.07;50.07;100207.78;5028859;28;20034;-63
2022/07/15 06:39:11;;;;;;;12.45;2.67;;;;;;;25.08;50.43;100227.84;5029454;28;20033;-63
2022/07/15 06:41:37;;;;;;;23.02;3.60;;;;;;;25.02;50.85;100217.78;5029297;28;20120;-63
2022/07/15 06:44:04;;;;;;;21.60;4.28;;;;;;;25.01;51.02;100214.19;5029392;28;20108;-63
2022/07/15 06:46:29;;;;;;;11.43;3.38;;;;;;;25.06;50.77;100224.50;5029403;28;20454;-62
2022/07/15 06:48:56;;;;;;;11.05;1.92;;;;;;;24.89;50.73;100205.06;5029468;28;20116;-63
2022/07/15 06:51:22;;;;;;;8.75;2.42;;;;;;;24.95;50.95;100219.78;5029667;28;20057;-63
2022/07/15 06:53:47;;;;;;;7.57;2.35;;;;;;;24.85;51.18;100205.78;5029258;28;20037;-63
2022/07/15 06:56:12;;;;;;;6.70;2.03;;;;;;;24.93;51.30;100222.75;5029263;28;20037;-62
2022/07/15 06:58:38;;;;;;;8.43;1.75;;;;;;;24.89;51.02;100204.25;5031760;28;20021;-63
2022/07/15 07:01:04;;;;;;;5.32;2.03;;;;;;;24.96;51.00;100229.69;5033326;28;20032;-63
2022/07/15 07:03:30;;;;;;;3.92;1.95;;;;;;;24.85;51.14;100220.31;5033294;28;20068;-63
2022/07/15 07:05:55;;;;;;;5.03;1.70;;;;;;;24.93;51.29;100249.34;5033355;28;20021;-63
2022/07/15 07:08:21;;;;;;;6.80;2.10;;;;;;;24.82;51.46;100228.19;5032868;28;20040;-63
2022/07/15 07:10:46;;;;;;;3.90;2.05;;;;;;;24.93;51.64;100246.59;5032966;28;20041;-63
2022/07/15 07:13:12;;;;;;;5.38;1.60;;;;;;;24.97;51.37;100234.09;5032668;28;20018;-63
2022/07/15 07:15:38;;;;;;;6.10;2.17;;;;;;;24.99;51.22;100241.03;5032794;28;20471;-62
2022/07/15 07:18:04;;;;;;;5.15;1.85;;;;;;;24.83;51.59;100230.69;5032830;28;20039;-63
2022/07/15 07:20:29;;;;;;;4.63;1.65;;;;;;;24.84;51.64;100254.31;5032690;28;20048;-63
2022/07/15 07:22:55;;;;;;;6.00;1.75;;;;;;;24.80;51.85;100247.63;5032899;28;20021;-63
2022/07/15 07:25:20;;;;;;;4.40;1.30;;;;;;;24.68;51.92;100252.16;5032530;28;20499;-63
2022/07/15 07:27:46;;;;;;;4.50;1.63;;;;;;;24.73;52.05;100256.97;5032565;28;20030;-63
2022/07/15 07:30:11;;;;;;;9.88;1.80;;;;;;;24.70;52.40;100249.19;5032692;28;20029;-63
2022/07/15 07:32:37;;;;;;;3.95;1.80;;;;;;;24.64;52.73;100253.69;5032334;28;20043;-63
2022/07/15 07:35:03;;;;;;;5.35;1.65;;;;;;;24.69;52.46;100256.56;5031235;28;20037;-63
2022/07/15 07:37:28;;;;;;;4.15;1.58;;;;;;;24.42;52.55;100236.81;5032570;28;20038;-63
2022/07/15 07:39:54;;;;;;;6.00;2.17;;;;;;;24.62;52.64;100274.13;5032310;28;20388;-63
2022/07/15 07:42:19;;;;;;;4.72;1.77;;;;;;;24.55;52.59;100265.13;5032270;28;20025;-63
2022/07/15 07:44:45;;;;;;;4.53;1.60;;;;;;;24.55;52.70;100271.47;5032046;28;20037;-63
2022/07/15 07:47:11;;;;;;;4.55;1.98;;;;;;;24.46;53.15;100275.56;5032373;28;20033;-63
2022/07/15 07:49:37;;;;;;;7.05;1.95;;;;;;;24.39;53.32;100277.53;5032090;28;20037;-63
2022/07/15 07:52:04;;;;;;;8.70;2.15;;;;;;;24.40;53.59;100301.13;5032442;28;20030;-63
2022/07/15 07:54:30;;;;;;;10.05;2.33;;;;;;;24.29;53.96;100294.50;5031990;28;20040;-63
2022/07/15 07:56:56;;;;;;;9.93;2.15;;;;;;;24.24;54.43;100286.09;5031967;28;20032;-62
2022/07/15 07:59:21;;;;;;;4.38;1.80;;;;;;;24.34;54.87;100323.97;5032099;28;20029;-63
2022/07/15 08:01:47;;;;;;;4.90;1.80;;;;;;;24.32;55.15;100337.91;5032096;28;20022;-63
2022/07/15 08:04:14;;;;;;;8.60;1.88;;;;;;;24.34;55.65;100344.00;5031959;28;20041;-63
2022/07/15 08:06:40;;;;;;;4.63;1.83;;;;;;;24.29;56.42;100338.38;5030919;28;20048;-63
2022/07/15 08:09:06;;;;;;;7.15;1.95;;;;;;;24.32;56.86;100343.38;5031317;28;20795;-63
2022/07/15 08:11:31;;;;;;;6.80;1.98;;;;;;;24.23;57.43;100349.38;5031863;28;20104;-63
2022/07/15 08:13:57;;;;;;;4.00;1.90;;;;;;;24.03;57.97;100329.50;5031680;28;20065;-63
2022/07/15 08:16:22;;;;;;;5.22;1.85;;;;;;;24.19;58.13;100354.44;5031729;28;20112;-63
2022/07/15 08:18:48;;;;;;;2.33;1.73;;;;;;;24.11;58.73;100342.91;5031597;28;20036;-63
2022/07/15 08:21:14;;;;;;;3.80;1.63;;;;;;;24.02;58.61;100325.06;5031652;28;20025;-63
2022/07/15 08:23:40;;;;;;;4.63;1.70;;;;;;;24.09;58.84;100351.34;5031353;28;20041;-63
2022/07/15 08:26:07;;;;;;;6.43;1.90;;;;;;;24.10;59.08;100352.19;5031512;28;20033;-62
2022/07/15 08:28:33;;;;;;;7.30;2.13;;;;;;;24.12;58.96;100341.88;5031274;28;20112;-62
2022/07/15 08:30:59;;;;;;;6.50;1.95;;;;;;;24.19;58.43;100346.22;5031688;28;20108;-62
2022/07/15 08:33:24;;;;;;;6.80;1.88;;;;;;;24.04;57.89;100331.16;5029964;28;20128;-63
2022/07/15 08:35:50;;;;;;;6.15;2.03;;;;;;;24.12;57.40;100361.06;5031181;28;20038;-63
2022/07/15 08:38:15;;;;;;;7.35;2.42;;;;;;;24.04;57.46;100364.03;5031313;28;20570;-63
2022/07/15 08:40:42;;;;;;;6.57;1.88;;;;;;;24.05;57.61;100365.72;5031068;28;20033;-62
2022/07/15 08:43:09;;;;;;;12.38;1.67;;;;;;;24.03;57.59;100376.94;5029698;28;20079;-63
2022/07/15 08:45:37;;;;;;;5.68;1.70;;;;;;;23.99;57.97;100372.91;5031012;28;20029;-62
2022/07/15 08:48:05;;;;;;;4.47;1.60;;;;;;;23.97;58.09;100368.72;5031251;28;20026;-62
2022/07/15 08:50:32;;;;;;;4.07;1.70;;;;;;;23.87;58.43;100362.84;5031089;28;20041;-62
2022/07/15 08:52:57;;;;;;;7.45;2.20;;;;;;;23.99;58.71;100385.81;5030822;28;20393;-63
2022/07/15 08:55:23;;;;;;;5.10;2.17;;;;;;;23.87;58.96;100393.84;5030781;28;20026;-63
2022/07/15 08:57:52;;;;;;;4.55;1.88;;;;;;;23.82;58.86;100390.91;5030620;28;20017;-63
2022/07/15 09:00:28;;;;;;;6.63;2.17;;;;;;;23.82;59.18;100384.56;5030727;28;20033;-62
2022/07/15 09:03:00;;;;;;;10.77;2.08;;;;;;;23.80;59.66;100389.44;5030693;28;20037;-63
2022/07/15 09:05:30;;;;;;;6.28;1.80;;;;;;;23.80;60.02;100394.94;5030546;28;20069;-63
2022/07/15 09:08:03;;;;;;;5.95;1.70;;;;;;;23.80;60.04;100395.75;5030620;28;20058;-62
2022/07/15 09:10:51;;;;;;;6.27;2.53;;;;;;;23.91;60.33;100408.78;5029441;28;20036;-62
2022/07/15 09:13:26;;;;;;;10.80;2.35;;;;;;;23.82;60.50;100425.66;5030506;28;20630;-62
2022/07/15 09:15:54;;;;;;;7.95;2.13;;;;;;;23.70;61.17;100405.50;5030628;28;20423;-62
2022/07/15 09:18:25;;;;;;;3.90;2.05;;;;;;;23.67;61.66;100393.06;5030306;28;20056;-63
2022/07/15 09:20:51;;;;;;;4.18;2.30;;;;;;;23.67;61.73;100408.69;5029602;28;20039;-63
2022/07/15 09:23:31;;;;;;;7.75;2.22;;;;;;;23.58;62.18;100418.19;5030303;28;20029;-63
2022/07/15 09:26:20;;;;;;;8.57;2.00;;;;;;;23.61;62.52;100421.34;5030494;28;20025;-62
2022/07/15 09:28:46;;;;;;;4.82;1.80;;;;;;;23.68;62.64;100433.13;5030296;28;20737;-62
2022/07/15 09:34:02;;;;;;;6.03;2.10;;;;;;;23.45;64.14;100374.44;5030517;28;20128;-62
2022/07/15 09:36:30;;;;;;;2.80;2.08;;;;;;;23.23;64.15;100294.50;5030405;28;20025;-62
2022/07/15 09:39:02;;;;;;;14.23;2.30;;;;;;;23.49;64.03;100370.19;5030483;28;20091;-62
2022/07/15 09:41:31;;;;;;;8.48;2.13;;;;;;;23.52;63.86;100391.66;5030428;28;20460;-63
2022/07/15 09:43:59;;;;;;;6.63;2.03;;;;;;;23.55;63.90;100407.66;5030190;28;20029;-62
2022/07/15 09:46:49;;;;;;;4.13;1.98;;;;;;;23.57;63.77;100402.81;5030389;28;20037;-63
2022/07/15 09:49:38;;;;;;;2.92;1.77;;;;;;;23.51;63.55;100404.50;5030306;28;20034;-62
2022/07/15 09:52:14;;;;;;;2.75;2.13;;;;;;;23.65;63.12;100424.47;5030721;28;20025;-62
2022/07/15 09:54:39;;;;;;;4.30;2.33;;;;;;;23.68;63.45;100427.63;5029959;28;20033;-63
2022/07/15 09:57:08;;;;;;;5.70;2.75;;;;;;;23.62;63.63;100428.50;5030036;28;20092;-62
2022/07/15 09:59:34;;;;;;;4.20;2.33;;;;;;;23.63;63.29;100407.44;5029978;28;20075;-63
2022/07/15 10:01:59;;;;;;;3.72;2.05;;;;;;;23.61;63.38;100399.44;5029743;28;20365;-62
2022/07/15 10:04:28;;;;;;;1.60;1.50;;;;;;;23.65;64.04;100460.94;5029734;28;20041;-62
2022/07/15 10:06:55;;;;;;;8.23;1.95;;;;;;;23.66;65.21;100437.97;5029637;28;20070;-63
2022/07/15 10:09:28;;;;;;;4.03;2.10;;;;;;;23.65;66.19;100417.13;5029629;28;20036;-62
2022/07/15 10:11:57;;;;;;;6.13;2.30;;;;;;;23.64;65.69;100425.56;5029669;28;20506;-64
2022/07/15 10:14:52;;;;;;;9.25;2.22;;;;;;;23.57;65.67;100430.22;5029485;28;20055;-62
2022/07/15 10:17:36;;;;;;;;;;;;;;;23.68;64.83;100427.63;5030034;28;20056;-62
2022/07/15 10:20:20;;;;;;;5.70;2.27;;;;;;;23.63;65.52;100413.75;5029711;28;19984;-63
2022/07/15 10:23:23;;;;;;;9.02;2.70;;;;;;;23.55;65.59;100416.72;5029357;28;20044;-63
2022/07/15 10:26:06;;;;;;;22.15;3.97;;;;;;;23.55;65.31;100415.88;5029413;28;20109;-62
2022/07/15 10:28:44;;;;;;;5.45;2.50;;;;;;;;;;5029596;28;20121;-63
2022/07/15 10:31:14;;;;;;;8.55;2.50;;;;;;;23.57;65.84;100398.16;5029427;28;20033;-62
2022/07/15 10:33:40;;;;;;;27.08;5.05;;;;;;;23.64;64.80;100389.94;5032141;28;20044;-62
2022/07/15 10:36:06;;;;;;;12.32;3.88;;;;;;;23.52;65.36;100361.53;5033693;28;20033;-62
2022/07/15 10:38:36;;;;;;;6.22;2.38;;;;;;;23.65;65.18;100384.25;5033562;28;20041;-63
2022/07/15 10:41:07;;;;;;;6.05;2.85;;;;;;;23.84;64.64;100407.97;5033539;28;20040;-62
2022/07/15 10:43:44;;;;;;;5.50;2.20;;;;;;;23.98;65.24;100400.53;5032123;28;20152;-63
2022/07/15 10:46:15;;;;;;;6.90;2.50;;;;;;;23.93;66.10;100372.94;5032030;28;20034;-63
2022/07/15 10:48:43;;;;;;;3.78;2.15;;;;;;;23.87;66.56;100388.38;5033217;28;20041;-63
2022/07/15 10:51:08;;;;;;;4.35;2.60;;;;;;;24.02;66.13;100399.88;5033521;28;20021;-63
2022/07/15 10:53:47;;;;;;;4.13;2.67;;;;;;;23.89;67.85;100410.06;5033282;28;20416;-63
2022/07/15 10:56:34;;;;;;;2.95;2.25;;;;;;;23.78;69.56;100403.38;5031822;28;20057;-63
2022/07/15 10:59:26;;;;;;;3.63;2.25;;;;;;;23.71;67.58;100399.81;5033154;28;20030;-63
2022/07/15 11:02:00;;;;;;;3.75;2.35;;;;;;;23.68;67.17;100388.44;5033056;28;20045;-63
2022/07/15 11:04:28;;;;;;;2.85;2.20;;;;;;;23.74;65.39;100387.59;5032698;28;20077;-63
2022/07/15 11:07:11;;;;;;;3.35;2.08;;;;;;;23.65;66.00;100373.28;5033123;28;20039;-63
2022/07/15 11:10:11;;;;;;;3.88;2.30;;;;;;;23.57;65.79;100369.97;5031752;28;20037;-63
2022/07/15 11:12:37;;;;;;;3.42;2.55;;;;;;;23.63;66.19;100369.91;5032705;28;20057;-63
2022/07/15 11:15:11;;;;;;;2.40;2.20;;;;;;;23.68;64.84;100372.88;5032951;28;20107;-63
2022/07/15 11:17:36;;;;;;;;;;;;;;;23.67;64.69;100357.47;5031967;28;20029;-63
2022/07/15 11:20:17;;;;;;;4.57;2.80;;;;;;;23.77;64.79;100340.56;5032510;28;19920;-63
2022/07/15 11:22:51;;;;;;;4.47;2.42;;;;;;;23.78;64.90;100334.88;5032630;28;20109;-64
2022/07/15 11:25:22;;;;;;;;;;;;;;;23.83;63.99;100335.03;5033111;28;20085;-65
2022/07/15 11:28:16;;;;;;;4.07;2.20;;;;;;;23.86;62.48;100351.03;5032487;28;19917;-65
2022/07/15 11:30:53;;;;;;;2.85;2.20;;;;;;;23.93;61.63;100353.75;5032471;28;20033;-64
2022/07/15 11:33:21;;;;;;;4.05;2.17;;;;;;;24.02;59.71;100368.91;5032490;28;20689;-65
2022/07/15 11:35:58;;;;;;;5.20;2.47;;;;;;;24.16;58.49;100376.00;5032228;28;20528;-64
2022/07/15 11:38:27;;;;;;;4.85;2.47;;;;;;;24.09;59.12;100381.50;5032328;28;20507;-64
2022/07/15 11:46:31;;;;;;;4.28;2.70;;;;;;;24.29;57.66;100387.72;5032341;28;20059;-63